Time;durP1;ratioP1;P1;durP2;ratioP2;P2;SDS_P1;SDS_P2;PMS_P1;PMS_P2;Temp;Humidity;BMP_temperature;BMP_pressure;BME280_temperature;BME280_humidity;BME280_pressure;Samples;Min_cycle;Max_cycle;Signal;HPM_P1;HPM_P2
2023/01/21 00:02:15;;;;;;;;;;;16.80;48.20;;;;;;10288129;28;849;-74
2023/01/21 00:07:11;;;;;;;;;;;16.80;48.10;;;;;;10287902;28;829;-74
2023/01/21 00:12:06;;;;;;;;;;;16.80;48.00;;;;;;10287666;28;847;-74
2023/01/21 00:17:02;;;;;;;;;;;16.80;48.10;;;;;;10288052;28;1906;-74
2023/01/21 00:21:57;;;;;;;;;;;16.80;48.20;;;;;;10287972;28;815;-74
2023/01/21 00:26:52;;;;;;;;;;;16.80;48.00;;;;;;10287225;28;920;-74
2023/01/21 00:31:48;;;;;;;;;;;16.80;48.10;;;;;;10286944;28;802;-74
2023/01/21 00:36:43;;;;;;;;;;;16.80;48.00;;;;;;10287076;28;1902;-74
2023/01/21 00:41:38;;;;;;;;;;;16.80;48.00;;;;;;10287170;28;912;-74
2023/01/21 00:46:34;;;;;;;;;;;16.80;48.00;;;;;;10285826;28;968;-74
2023/01/21 00:51:29;;;;;;;;;;;16.80;48.00;;;;;;10286823;28;790;-74
2023/01/21 00:56:25;;;;;;;;;;;16.80;47.90;;;;;;10286537;28;1969;-74
2023/01/21 01:01:20;;;;;;;;;;;16.90;47.90;;;;;;10285484;28;933;-74
2023/01/21 01:06:15;;;;;;;;;;;16.90;47.90;;;;;;10286058;28;778;-74
2023/01/21 01:11:11;;;;;;;;;;;16.80;47.90;;;;;;10285512;28;766;-74
2023/01/21 01:16:06;;;;;;;;;;;16.90;47.90;;;;;;10285252;28;1906;-74
2023/01/21 01:21:01;;;;;;;;;;;16.80;47.80;;;;;;10285278;28;959;-74
2023/01/21 01:25:57;;;;;;;;;;;16.80;47.70;;;;;;10285299;28;801;-74
2023/01/21 01:30:52;;;;;;;;;;;16.80;47.70;;;;;;10285581;28;975;-74
2023/01/21 01:35:51;;;;;;;;;;;16.80;47.70;;;;;;10284820;28;1918;-74
2023/01/21 01:40:46;;;;;;;;;;;16.90;47.70;;;;;;10285384;28;848;-74
2023/01/21 01:45:41;;;;;;;;;;;16.80;47.60;;;;;;10284653;28;945;-74
2023/01/21 01:50:37;;;;;;;;;;;16.80;47.60;;;;;;10284561;28;809;-74
2023/01/21 01:55:33;;;;;;;;;;;16.80;47.50;;;;;;10285050;28;858;-74
2023/01/21 02:00:28;;;;;;;;;;;16.80;47.70;;;;;;10284283;28;1901;-74
2023/01/21 02:05:23;;;;;;;;;;;16.80;47.70;;;;;;10283661;28;1057;-74
2023/01/21 02:10:19;;;;;;;;;;;16.80;47.70;;;;;;10283563;28;1031;-74
2023/01/21 02:15:14;;;;;;;;;;;16.80;47.70;;;;;;10289077;28;773;-74
2023/01/21 02:20:09;;;;;;;;;;;16.80;47.60;;;;;;10292872;28;1961;-74
2023/01/21 02:25:05;;;;;;;;;;;16.80;47.60;;;;;;10292491;28;904;-73
2023/01/21 02:30:00;;;;;;;;;;;16.80;47.60;;;;;;10291102;28;881;-74
2023/01/21 02:34:55;;;;;;;;;;;16.80;47.60;;;;;;10291981;28;1320;-74
2023/01/21 02:39:51;;;;;;;;;;;16.80;47.60;;;;;;10292169;28;1905;-74
2023/01/21 02:44:46;;;;;;;;;;;16.80;47.60;;;;;;10291371;28;952;-74
2023/01/21 02:49:41;;;;;;;;;;;16.80;48.20;;;;;;10290360;28;892;-74
2023/01/21 02:54:37;;;;;;;;;;;16.70;47.50;;;;;;10290746;28;862;-73
2023/01/21 02:59:32;;;;;;;;;;;16.80;47.50;;;;;;10291230;28;1902;-74
2023/01/21 03:04:28;;;;;;;;;;;16.80;47.50;;;;;;10290473;28;913;-74
2023/01/21 03:09:23;;;;;;;;;;;16.70;47.50;;;;;;10290167;28;789;-74
2023/01/21 03:19:32;;;;;;;;;;;16.80;47.50;;;;;;10289261;28;1890;-74
2023/01/21 03:24:28;;;;;;;;;;;16.80;47.40;;;;;;10288627;28;1041;-74
2023/01/21 03:29:23;;;;;;;;;;;16.70;47.40;;;;;;10289326;28;763;-74
2023/01/21 03:34:19;;;;;;;;;;;16.70;47.50;;;;;;10289269;28;876;-74
2023/01/21 03:39:14;;;;;;;;;;;16.70;47.50;;;;;;10289044;28;1906;-74
2023/01/21 03:44:09;;;;;;;;;;;16.70;47.50;;;;;;10289541;28;856;-74
2023/01/21 03:49:05;;;;;;;;;;;16.70;47.40;;;;;;10288729;28;833;-74
2023/01/21 03:54:00;;;;;;;;;;;16.70;47.40;;;;;;10289100;28;924;-74
2023/01/21 03:58:55;;;;;;;;;;;16.70;47.40;;;;;;10288884;28;1905;-74
2023/01/21 04:03:51;;;;;;;;;;;16.70;47.40;;;;;;10288184;28;850;-74
2023/01/21 04:08:46;;;;;;;;;;;16.70;47.40;;;;;;10288587;28;915;-74
2023/01/21 04:13:41;;;;;;;;;;;16.70;47.30;;;;;;10288333;28;928;-74
2023/01/21 04:18:37;;;;;;;;;;;16.70;47.20;;;;;;10287779;28;1902;-74
2023/01/21 04:23:32;;;;;;;;;;;16.70;47.30;;;;;;10287938;28;797;-74
2023/01/21 04:28:27;;;;;;;;;;;16.80;47.30;;;;;;10287157;28;877;-74
2023/01/21 04:33:23;;;;;;;;;;;16.80;47.10;;;;;;10287545;28;857;-74
2023/01/21 04:38:18;;;;;;;;;;;16.70;47.20;;;;;;10286022;28;1910;-73
2023/01/21 04:43:13;;;;;;;;;;;16.70;47.30;;;;;;10287243;28;926;-73
2023/01/21 04:48:09;;;;;;;;;;;16.70;47.20;;;;;;10286771;28;952;-74
2023/01/21 04:53:04;;;;;;;;;;;16.70;47.10;;;;;;10286193;28;806;-74
2023/01/21 04:58:00;;;;;;;;;;;16.70;47.10;;;;;;10286585;28;1969;-74
2023/01/21 05:02:55;;;;;;;;;;;16.70;47.20;;;;;;10285846;28;814;-73
2023/01/21 05:07:50;;;;;;;;;;;16.70;47.20;;;;;;10285638;28;974;-74
2023/01/21 05:12:47;;;;;;;;;;;16.80;47.10;;;;;;10285550;28;848;-74
2023/01/21 05:17:42;;;;;;;;;;;16.70;47.00;;;;;;10285901;28;1901;-74
2023/01/21 05:22:38;;;;;;;;;;;16.80;47.00;;;;;;10285987;28;892;-74
2023/01/21 05:27:34;;;;;;;;;;;16.80;47.00;;;;;;10285104;28;785;-74
2023/01/21 05:32:29;;;;;;;;;;;16.80;46.90;;;;;;10285556;28;857;-74
2023/01/21 05:37:25;;;;;;;;;;;16.80;46.80;;;;;;10285374;28;1976;-74
2023/01/21 05:42:20;;;;;;;;;;;16.80;47.00;;;;;;10284132;28;1425;-74
2023/01/21 05:47:15;;;;;;;;;;;16.80;47.00;;;;;;10284616;28;879;-74
2023/01/21 05:52:11;;;;;;;;;;;16.80;47.00;;;;;;10284875;28;873;-74
2023/01/21 05:57:06;;;;;;;;;;;16.80;46.90;;;;;;10284310;28;1957;-74
2023/01/21 06:02:02;;;;;;;;;;;16.80;46.90;;;;;;10284343;28;891;-74
2023/01/21 06:06:57;;;;;;;;;;;16.80;46.80;;;;;;10283696;28;849;-74
2023/01/21 06:11:52;;;;;;;;;;;16.80;47.00;;;;;;10284711;28;872;-74
2023/01/21 06:16:48;;;;;;;;;;;16.80;46.90;;;;;;10284212;28;1905;-74
2023/01/21 06:21:43;;;;;;;;;;;16.80;46.80;;;;;;10284602;28;778;-74
2023/01/21 06:26:38;;;;;;;;;;;16.80;46.80;;;;;;10283918;28;834;-73
2023/01/21 06:31:34;;;;;;;;;;;16.80;46.70;;;;;;10284400;28;821;-72
2023/01/21 06:36:29;;;;;;;;;;;16.90;46.80;;;;;;10283016;28;1909;-71
2023/01/21 06:41:24;;;;;;;;;;;16.80;46.80;;;;;;10284184;28;885;-71
2023/01/21 06:46:20;;;;;;;;;;;16.80;46.90;;;;;;10282030;28;792;-72
2023/01/21 06:51:15;;;;;;;;;;;16.80;46.70;;;;;;10283971;28;949;-71
2023/01/21 06:56:11;;;;;;;;;;;16.80;46.70;;;;;;10283883;28;1898;-72
2023/01/21 07:01:06;;;;;;;;;;;16.80;46.70;;;;;;10285598;28;986;-72
2023/01/21 07:06:01;;;;;;;;;;;16.80;46.70;;;;;;10291045;28;873;-72
2023/01/21 07:10:57;;;;;;;;;;;16.80;46.70;;;;;;10289599;28;1233;-71
2023/01/21 07:15:52;;;;;;;;;;;16.80;46.70;;;;;;10289971;28;1967;-71
2023/01/21 07:20:47;;;;;;;;;;;16.80;46.80;;;;;;10289927;28;940;-70
2023/01/21 07:25:43;;;;;;;;;;;16.80;46.70;;;;;;10290243;28;821;-71
2023/01/21 07:30:38;;;;;;;;;;;16.80;46.70;;;;;;10289427;28;887;-72
2023/01/21 07:35:33;;;;;;;;;;;16.70;46.70;;;;;;10289672;28;1137;-72
2023/01/21 07:40:29;;;;;;;;;;;16.70;46.80;;;;;;10288996;28;1977;-72
2023/01/21 07:45:24;;;;;;;;;;;16.70;47.00;;;;;;10289524;28;829;-72
2023/01/21 07:50:20;;;;;;;;;;;16.70;47.00;;;;;;10289947;28;808;-72
2023/01/21 07:55:15;;;;;;;;;;;16.70;46.90;;;;;;10288542;28;857;-71
2023/01/21 08:00:11;;;;;;;;;;;16.70;46.80;;;;;;10288457;28;1972;-70
2023/01/21 08:05:06;;;;;;;;;;;17.00;47.40;;;;;;10287769;28;1049;-70
2023/01/21 08:10:01;;;;;;;;;;;17.10;47.80;;;;;;10288529;28;879;-75
2023/01/21 08:14:57;;;;;;;;;;;17.00;47.80;;;;;;10287572;28;877;-75
2023/01/21 08:19:52;;;;;;;;;;;16.90;47.90;;;;;;10287326;28;1970;-75
2023/01/21 08:24:47;;;;;;;;;;;16.80;47.80;;;;;;10287109;28;1191;-75
2023/01/21 08:29:43;;;;;;;;;;;16.80;47.80;;;;;;10287152;28;763;-75
2023/01/21 08:34:38;;;;;;;;;;;16.70;47.60;;;;;;10287562;28;818;-75
2023/01/21 08:39:34;;;;;;;;;;;16.70;47.60;;;;;;10287226;28;1992;-74
2023/01/21 08:44:29;;;;;;;;;;;16.80;47.50;;;;;;10286551;28;810;-76
2023/01/21 08:49:24;;;;;;;;;;;16.90;47.50;;;;;;10286436;28;834;-70
2023/01/21 08:54:20;;;;;;;;;;;16.90;47.50;;;;;;10286214;28;876;-68
2023/01/21 08:59:15;;;;;;;;;;;17.20;48.30;;;;;;10285973;28;1898;-67
2023/01/21 09:04:11;;;;;;;;;;;17.30;48.40;;;;;;10285848;28;804;-71
2023/01/21 09:09:06;;;;;;;;;;;17.20;48.50;;;;;;10286234;28;969;-71
2023/01/21 09:14:03;;;;;;;;;;;16.90;48.50;;;;;;10286062;28;867;-71
2023/01/21 09:18:58;;;;;;;;;;;16.90;48.50;;;;;;10285909;28;1910;-70
2023/01/21 09:23:53;;;;;;;;;;;16.80;48.40;;;;;;10284739;28;817;-68
2023/01/21 09:28:49;;;;;;;;;;;16.80;48.40;;;;;;10285166;28;947;-71
2023/01/21 09:33:44;;;;;;;;;;;16.80;48.30;;;;;;10271760;28;1330;-72
2023/01/21 09:38:39;;;;;;;;;;;16.70;48.10;;;;;;10245539;28;1917;-72
2023/01/21 09:43:35;;;;;;;;;;;16.70;48.00;;;;;;10281225;28;1405;-72
2023/01/21 09:48:30;;;;;;;;;;;16.70;48.00;;;;;;10287834;28;1406;-73
2023/01/21 09:53:25;;;;;;;;;;;16.70;47.80;;;;;;10284642;28;1470;-73
2023/01/21 09:58:21;;;;;;;;;;;16.70;47.80;;;;;;10258572;28;1898;-74
2023/01/21 10:03:17;;;;;;;;;;;16.80;47.90;;;;;;10270139;28;1860;-75
2023/01/21 10:08:12;;;;;;;;;;;16.80;48.00;;;;;;10285115;28;857;-74
2023/01/21 10:13:07;;;;;;;;;;;16.80;48.00;;;;;;10284309;28;822;-74
2023/01/21 10:18:03;;;;;;;;;;;16.70;47.90;;;;;;10284033;28;1884;-74
2023/01/21 10:22:58;;;;;;;;;;;16.70;47.90;;;;;;10284011;28;785;-74
2023/01/21 10:27:53;;;;;;;;;;;16.70;47.90;;;;;;10284464;28;818;-74
2023/01/21 10:32:49;;;;;;;;;;;16.70;48.00;;;;;;10283913;28;849;-74
2023/01/21 10:37:44;;;;;;;;;;;16.70;47.80;;;;;;10288420;28;1902;-74
2023/01/21 10:42:39;;;;;;;;;;;16.70;47.90;;;;;;10291348;28;877;-74
2023/01/21 10:47:35;;;;;;;;;;;16.70;48.00;;;;;;10291191;28;783;-74
2023/01/21 10:52:30;;;;;;;;;;;16.70;47.80;;;;;;10291648;28;826;-75
2023/01/21 10:57:26;;;;;;;;;;;16.70;47.90;;;;;;10290749;28;1964;-74
2023/01/21 11:02:21;;;;;;;;;;;16.70;47.70;;;;;;10290677;28;821;-77
2023/01/21 11:07:16;;;;;;;;;;;16.70;47.80;;;;;;10290527;28;1049;-77
2023/01/21 11:12:12;;;;;;;;;;;16.70;47.90;;;;;;10290459;28;890;-75
2023/01/21 11:17:07;;;;;;;;;;;16.70;47.90;;;;;;10290004;28;1963;-74
2023/01/21 11:22:03;;;;;;;;;;;16.70;47.90;;;;;;10289858;28;837;-74
2023/01/21 11:26:58;;;;;;;;;;;16.70;47.80;;;;;;10289861;28;842;-74
2023/01/21 11:31:53;;;;;;;;;;;16.70;47.90;;;;;;10290068;28;755;-74
2023/01/21 11:36:49;;;;;;;;;;;16.70;47.80;;;;;;10289949;28;1977;-74
2023/01/21 11:41:44;;;;;;;;;;;16.70;47.90;;;;;;10289353;28;936;-74
2023/01/21 11:46:40;;;;;;;;;;;16.70;47.80;;;;;;10289077;28;825;-74
2023/01/21 11:51:35;;;;;;;;;;;16.60;47.80;;;;;;10288740;28;916;-74
2023/01/21 11:56:30;;;;;;;;;;;16.70;47.80;;;;;;10288451;28;1955;-75
2023/01/21 12:01:26;;;;;;;;;;;16.60;47.80;;;;;;10288976;28;794;-74
2023/01/21 12:06:21;;;;;;;;;;;16.60;47.80;;;;;;10287561;28;889;-75
2023/01/21 12:11:16;;;;;;;;;;;16.70;47.80;;;;;;10288551;28;805;-74
2023/01/21 12:16:12;;;;;;;;;;;16.70;47.80;;;;;;10287976;28;1953;-74
2023/01/21 12:21:07;;;;;;;;;;;16.70;47.80;;;;;;10288135;28;897;-74
2023/01/21 12:26:03;;;;;;;;;;;16.70;47.90;;;;;;10288023;28;881;-74
2023/01/21 12:30:58;;;;;;;;;;;16.70;47.80;;;;;;10287237;28;834;-74
2023/01/21 12:35:53;;;;;;;;;;;16.60;47.90;;;;;;10302542;28;1398;-76
2023/01/21 12:40:49;;;;;;;;;;;16.60;47.90;;;;;;10286207;28;1914;-74
2023/01/21 12:45:44;;;;;;;;;;;16.70;47.90;;;;;;10286735;28;813;-75
2023/01/21 12:50:40;;;;;;;;;;;16.60;47.90;;;;;;10287030;28;826;-75
2023/01/21 12:55:35;;;;;;;;;;;16.70;48.30;;;;;;10286452;28;914;-75
2023/01/21 13:00:30;;;;;;;;;;;16.60;47.90;;;;;;10286083;28;1905;-74
2023/01/21 13:05:26;;;;;;;;;;;16.60;48.00;;;;;;10284694;28;1406;-73
2023/01/21 13:10:21;;;;;;;;;;;16.60;48.00;;;;;;10285146;28;1426;-74
2023/01/21 13:15:16;;;;;;;;;;;16.70;48.10;;;;;;10280413;28;1474;-74
2023/01/21 13:20:12;;;;;;;;;;;16.70;48.00;;;;;;10288604;28;1910;-74
2023/01/21 13:25:07;;;;;;;;;;;16.70;48.00;;;;;;10299172;28;1408;-75
2023/01/21 13:30:02;;;;;;;;;;;16.70;48.20;;;;;;10267118;28;1396;-76
2023/01/21 13:34:58;;;;;;;;;;;16.70;48.30;;;;;;10253312;28;1417;-76
2023/01/21 13:39:53;;;;;;;;;;;16.70;48.30;;;;;;10245546;28;1918;-76
2023/01/21 13:44:49;;;;;;;;;;;16.60;48.90;;;;;;10244602;28;869;-75
2023/01/21 13:49:44;;;;;;;;;;;16.60;48.40;;;;;;10244294;28;843;-76
2023/01/21 13:54:39;;;;;;;;;;;16.50;48.40;;;;;;10244297;28;890;-73
2023/01/21 13:59:35;;;;;;;;;;;16.50;48.40;;;;;;10244090;28;1967;-73
2023/01/21 14:04:30;;;;;;;;;;;16.60;48.40;;;;;;10243479;28;917;-73
2023/01/21 14:09:25;;;;;;;;;;;16.60;48.30;;;;;;10244802;28;986;-73
2023/01/21 14:14:21;;;;;;;;;;;16.60;48.30;;;;;;10251577;28;813;-72
2023/01/21 14:19:16;;;;;;;;;;;16.60;48.30;;;;;;10251209;28;1902;-73
2023/01/21 14:24:11;;;;;;;;;;;16.60;48.30;;;;;;10250682;28;1043;-73
2023/01/21 14:29:08;;;;;;;;;;;16.50;48.30;;;;;;10251608;28;879;-74
2023/01/21 14:34:03;;;;;;;;;;;16.50;48.30;;;;;;10250792;28;878;-74
2023/01/21 14:38:59;;;;;;;;;;;16.90;48.90;;;;;;10250458;28;1902;-75
2023/01/21 14:43:54;;;;;;;;;;;17.10;48.80;;;;;;10250421;28;886;-73
2023/01/21 14:48:49;;;;;;;;;;;17.20;48.90;;;;;;10249689;28;895;-74
2023/01/21 14:53:45;;;;;;;;;;;17.20;48.80;;;;;;10250666;28;863;-71
2023/01/21 14:58:40;;;;;;;;;;;17.10;48.70;;;;;;10250370;28;1952;-71
2023/01/21 15:03:36;;;;;;;;;;;17.00;48.90;;;;;;10249726;28;884;-71
2023/01/21 15:08:34;;;;;;;;;;;17.00;48.90;;;;;;10248919;28;885;-71
2023/01/21 15:13:30;;;;;;;;;;;17.00;48.90;;;;;;10249194;28;832;-72
2023/01/21 15:18:25;;;;;;;;;;;17.00;48.80;;;;;;10249834;28;1953;-72
2023/01/21 15:23:21;;;;;;;;;;;17.00;48.80;;;;;;10248581;28;880;-72
2023/01/21 15:28:16;;;;;;;;;;;17.00;48.70;;;;;;10248778;28;776;-72
2023/01/21 15:33:12;;;;;;;;;;;17.00;48.60;;;;;;10249830;28;935;-72
2023/01/21 15:38:07;;;;;;;;;;;17.00;48.70;;;;;;10248297;28;1995;-71
2023/01/21 15:43:02;;;;;;;;;;;17.00;48.50;;;;;;10248239;28;906;-72
2023/01/21 15:47:58;;;;;;;;;;;17.00;48.60;;;;;;10248603;28;866;-72
2023/01/21 15:52:53;;;;;;;;;;;17.00;48.70;;;;;;10248549;28;1046;-72
2023/01/21 15:57:48;;;;;;;;;;;17.10;48.70;;;;;;10248314;28;1910;-72
2023/01/21 16:02:44;;;;;;;;;;;17.00;48.60;;;;;;10247466;28;807;-72
2023/01/21 16:07:39;;;;;;;;;;;17.00;48.70;;;;;;10247866;28;983;-71
2023/01/21 16:12:34;;;;;;;;;;;17.10;48.70;;;;;;10247102;28;876;-72
2023/01/21 16:17:30;;;;;;;;;;;17.10;48.60;;;;;;10246359;28;1975;-74
2023/01/21 16:22:25;;;;;;;;;;;17.00;48.60;;;;;;10248027;28;927;-74
2023/01/21 16:27:21;;;;;;;;;;;16.90;48.80;;;;;;10247773;28;952;-74
2023/01/21 16:32:16;;;;;;;;;;;16.90;48.90;;;;;;10246413;28;801;-74
2023/01/21 16:37:11;;;;;;;;;;;16.90;48.90;;;;;;10246494;28;1987;-72
2023/01/21 16:42:07;;;;;;;;;;;16.90;48.90;;;;;;10246294;28;867;-71
2023/01/21 16:47:02;;;;;;;;;;;16.80;48.70;;;;;;10246684;28;814;-71
2023/01/21 16:51:57;;;;;;;;;;;16.80;48.80;;;;;;10245911;28;884;-69
2023/01/21 16:56:53;;;;;;;;;;;16.80;48.70;;;;;;10246283;28;1910;-71
2023/01/21 17:01:48;;;;;;;;;;;16.80;48.60;;;;;;10245564;28;882;-71
2023/01/21 17:06:44;;;;;;;;;;;16.80;48.60;;;;;;10244646;28;937;-71
2023/01/21 17:11:39;;;;;;;;;;;16.80;48.50;;;;;;10245777;28;806;-71
2023/01/21 17:16:34;;;;;;;;;;;16.80;48.40;;;;;;10245564;28;1965;-70
2023/01/21 17:21:30;;;;;;;;;;;16.80;48.20;;;;;;10245527;28;838;-72
2023/01/21 17:26:25;;;;;;;;;;;17.10;48.30;;;;;;10244784;28;782;-73
2023/01/21 17:31:21;;;;;;;;;;;17.30;48.10;;;;;;10245138;28;830;-73
2023/01/21 17:36:17;;;;;;;;;;;17.30;48.00;;;;;;10243502;28;1905;-73
2023/01/21 17:41:13;;;;;;;;;;;17.20;48.10;;;;;;10244286;28;969;-73
2023/01/21 17:46:08;;;;;;;;;;;17.20;48.20;;;;;;10243790;28;825;-73
2023/01/21 17:51:03;;;;;;;;;;;17.20;48.20;;;;;;10244149;28;822;-73
2023/01/21 17:55:59;;;;;;;;;;;17.20;48.20;;;;;;10244766;28;818;-73
2023/01/21 18:00:54;;;;;;;;;;;17.20;48.10;;;;;;10243244;28;1890;-73
2023/01/21 18:05:49;;;;;;;;;;;17.20;48.20;;;;;;10243866;28;993;-73
2023/01/21 18:10:45;;;;;;;;;;;17.30;48.20;;;;;;10244661;28;841;-73
2023/01/21 18:15:41;;;;;;;;;;;17.30;48.00;;;;;;10243745;28;945;-73
2023/01/21 18:20:37;;;;;;;;;;;17.30;48.00;;;;;;10243758;28;1902;-73
2023/01/21 18:25:32;;;;;;;;;;;17.30;48.00;;;;;;10244146;28;960;-73
2023/01/21 18:30:27;;;;;;;;;;;17.30;48.00;;;;;;10243306;28;890;-73
2023/01/21 18:35:23;;;;;;;;;;;17.40;48.00;;;;;;10242693;28;1272;-72
2023/01/21 18:40:20;;;;;;;;;;;17.40;47.90;;;;;;10242854;28;1910;-71
2023/01/21 18:45:15;;;;;;;;;;;17.40;48.10;;;;;;10242898;28;916;-73
2023/01/21 18:50:11;;;;;;;;;;;17.40;48.30;;;;;;10242119;28;952;-72
2023/01/21 18:55:06;;;;;;;;;;;17.40;48.40;;;;;;10242641;28;769;-72
2023/01/21 19:00:03;;;;;;;;;;;17.50;48.30;;;;;;10249825;28;1965;-72
2023/01/21 19:04:58;;;;;;;;;;;17.50;48.40;;;;;;10249677;28;797;-72
2023/01/21 19:09:54;;;;;;;;;;;17.40;48.40;;;;;;10249576;28;949;-72
2023/01/21 19:14:51;;;;;;;;;;;17.50;48.40;;;;;;10248832;28;1041;-71
2023/01/21 19:19:46;;;;;;;;;;;17.50;48.30;;;;;;10248967;28;1963;-72
2023/01/21 19:24:42;;;;;;;;;;;17.50;48.20;;;;;;10249310;28;897;-78
2023/01/21 19:29:37;;;;;;;;;;;17.40;48.30;;;;;;10249064;28;842;-77
2023/01/21 19:34:33;;;;;;;;;;;17.20;48.60;;;;;;10249057;28;1015;-77
2023/01/21 19:39:31;;;;;;;;;;;17.10;48.80;;;;;;10248477;28;1957;-77
2023/01/21 19:44:26;;;;;;;;;;;17.10;48.80;;;;;;10248532;28;918;-77
2023/01/21 19:49:22;;;;;;;;;;;17.10;48.70;;;;;;10248443;28;878;-77
2023/01/21 19:54:17;;;;;;;;;;;17.00;48.70;;;;;;10248236;28;903;-77
2023/01/21 19:59:13;;;;;;;;;;;17.00;48.70;;;;;;10248881;28;1895;-77
2023/01/21 20:04:08;;;;;;;;;;;17.00;48.80;;;;;;10248491;28;939;-77
2023/01/21 20:09:03;;;;;;;;;;;17.00;48.80;;;;;;10246766;28;999;-77
2023/01/21 20:13:59;;;;;;;;;;;17.00;48.80;;;;;;10247416;28;987;-77
2023/01/21 20:18:55;;;;;;;;;;;17.00;48.80;;;;;;10247253;28;2021;-77
2023/01/21 20:23:50;;;;;;;;;;;17.00;48.80;;;;;;10247035;28;950;-77
2023/01/21 20:28:49;;;;;;;;;;;17.00;48.80;;;;;;10247572;28;868;-77
2023/01/21 20:33:45;;;;;;;;;;;16.90;48.80;;;;;;10246725;28;794;-77
2023/01/21 20:38:41;;;;;;;;;;;17.00;48.70;;;;;;10246486;28;1910;-77
2023/01/21 20:43:36;;;;;;;;;;;17.00;48.80;;;;;;10246498;28;778;-77
2023/01/21 20:48:31;;;;;;;;;;;16.90;48.80;;;;;;10246118;28;880;-77
2023/01/21 20:53:27;;;;;;;;;;;16.90;48.80;;;;;;10246562;28;874;-77
2023/01/21 20:58:22;;;;;;;;;;;16.90;48.90;;;;;;10245682;28;1948;-77
2023/01/21 21:03:18;;;;;;;;;;;16.80;48.90;;;;;;10245480;28;977;-77
2023/01/21 21:08:13;;;;;;;;;;;16.90;48.90;;;;;;10245407;28;854;-77
2023/01/21 21:13:09;;;;;;;;;;;16.80;48.90;;;;;;10245173;28;793;-77
2023/01/21 21:18:04;;;;;;;;;;;16.80;48.90;;;;;;10245515;28;1953;-77
2023/01/21 21:23:00;;;;;;;;;;;16.90;48.90;;;;;;10244446;28;932;-77
2023/01/21 21:27:55;;;;;;;;;;;16.90;48.90;;;;;;10245260;28;895;-77
2023/01/21 21:32:50;;;;;;;;;;;16.80;48.90;;;;;;10244569;28;928;-77
2023/01/21 21:37:46;;;;;;;;;;;16.90;48.90;;;;;;10244642;28;1906;-77
2023/01/21 21:53:10;;;;;;;;;;;16.80;48.90;;;;;;10244347;28;584;-76
2023/01/21 21:58:06;;;;;;;;;;;16.80;48.80;;;;;;10243920;28;1909;-76
2023/01/21 22:03:01;;;;;;;;;;;16.80;48.90;;;;;;10243974;28;950;-76
2023/01/21 22:07:57;;;;;;;;;;;16.80;48.90;;;;;;10244433;28;797;-76
2023/01/21 22:12:52;;;;;;;;;;;16.80;48.90;;;;;;10244388;28;873;-76
2023/01/21 22:17:47;;;;;;;;;;;16.80;48.90;;;;;;10244359;28;1902;-78
2023/01/21 22:22:43;;;;;;;;;;;16.80;49.00;;;;;;10244140;28;821;-75
2023/01/21 22:27:38;;;;;;;;;;;16.70;49.00;;;;;;10243498;28;867;-76
2023/01/21 22:32:33;;;;;;;;;;;16.70;49.00;;;;;;10248282;28;800;-75
2023/01/21 22:37:29;;;;;;;;;;;16.70;49.00;;;;;;10250882;28;1910;-75
2023/01/21 22:42:24;;;;;;;;;;;16.80;48.90;;;;;;10250979;28;857;-75
2023/01/21 22:47:19;;;;;;;;;;;16.80;49.00;;;;;;10250740;28;859;-75
2023/01/21 22:52:15;;;;;;;;;;;16.70;49.00;;;;;;10250624;28;790;-75
2023/01/21 22:57:10;;;;;;;;;;;16.70;48.90;;;;;;10249807;28;1911;-75
2023/01/21 23:02:06;;;;;;;;;;;16.70;48.90;;;;;;10250262;28;897;-75
2023/01/21 23:07:01;;;;;;;;;;;16.70;48.90;;;;;;10249364;28;1020;-75
2023/01/21 23:11:56;;;;;;;;;;;16.70;48.90;;;;;;10249785;28;855;-75
2023/01/21 23:16:52;;;;;;;;;;;16.70;49.00;;;;;;10249649;28;1984;-75
2023/01/21 23:21:47;;;;;;;;;;;16.70;48.80;;;;;;10249511;28;798;-75
2023/01/21 23:26:42;;;;;;;;;;;16.80;48.90;;;;;;10249312;28;893;-75
2023/01/21 23:31:38;;;;;;;;;;;16.70;48.80;;;;;;10249154;28;866;-75
2023/01/21 23:36:33;;;;;;;;;;;16.80;48.80;;;;;;10249491;28;1993;-75
2023/01/21 23:41:29;;;;;;;;;;;16.70;48.80;;;;;;10248205;28;775;-75
2023/01/21 23:46:24;;;;;;;;;;;16.70;48.90;;;;;;10249290;28;825;-75
2023/01/21 23:51:19;;;;;;;;;;;16.80;48.80;;;;;;10248457;28;865;-75
2023/01/21 23:56:15;;;;;;;;;;;16.70;48.90;;;;;;10248941;28;797;-75
